Time;durP1;ratioP1;P1;durP2;ratioP2;P2;SDS_P1;SDS_P2;PMS_P1;PMS_P2;Temp;Humidity;BMP_temperature;BMP_pressure;BME280_temperature;BME280_humidity;BME280_pressure;Samples;Min_cycle;Max_cycle;Signal;HPM_P1;HPM_P2
2021/12/22 00:01:10;;;;;;;8.60;4.30;;;;;;;-11.14;70.21;100259.23;1696859;84;21324;-80
2021/12/22 00:04:16;;;;;;;7.28;4.37;;;;;;;-11.16;69.90;100265.45;1696729;84;21213;-81
2021/12/22 00:07:22;;;;;;;13.55;4.65;;;;;;;-11.17;69.90;100265.90;1696155;84;21356;-79
2021/12/22 00:10:27;;;;;;;8.43;5.28;;;;;;;-11.20;69.56;100275.22;1696638;84;21273;-83
2021/12/22 00:13:32;;;;;;;11.20;6.15;;;;;;;-11.21;69.57;100274.81;1696013;83;21803;-80
2021/12/22 00:16:38;;;;;;;12.73;7.58;;;;;;;-11.25;69.47;100272.29;1695655;84;21775;-78
2021/12/22 00:19:43;;;;;;;8.60;5.85;;;;;;;-11.29;69.51;100270.63;1696709;84;21588;-81
2021/12/22 00:22:48;;;;;;;12.65;7.05;;;;;;;-11.37;69.49;100266.89;1696103;84;21324;-79
2021/12/22 00:25:54;;;;;;;10.72;6.40;;;;;;;-11.42;69.55;100274.07;1695628;84;21308;-80
2021/12/22 00:28:59;;;;;;;9.90;5.70;;;;;;;-11.48;69.56;100276.39;1699807;82;21327;-78
2021/12/22 00:32:11;;;;;;;9.23;4.00;;;;;;;-11.51;69.75;100279.12;1701510;84;21198;-81
2021/12/22 00:35:15;;;;;;;7.92;4.83;;;;;;;-11.53;69.86;100272.14;1701959;84;21620;-80
2021/12/22 00:38:28;;;;;;;8.93;4.87;;;;;;;-11.57;70.12;100275.33;1701712;84;21316;-79
2021/12/22 00:41:34;;;;;;;10.58;4.80;;;;;;;-11.55;70.37;100277.47;1701865;84;21297;-81
2021/12/22 00:44:40;;;;;;;8.20;4.17;;;;;;;-11.60;70.76;100273.63;1680296;82;21567;-81
2021/12/22 00:47:45;;;;;;;6.85;4.28;;;;;;;-11.65;71.30;100275.97;1724761;83;21282;-80
2021/12/22 00:50:50;;;;;;;9.20;3.72;;;;;;;-11.73;71.91;100280.10;1724871;83;21265;-80
2021/12/22 00:53:58;;;;;;;9.65;3.80;;;;;;;-11.76;72.53;100276.66;1724798;83;21868;-81
2021/12/22 00:57:05;;;;;;;6.70;4.17;;;;;;;-11.77;73.33;100269.20;1724561;83;21595;-81
2021/12/22 01:00:12;;;;;;;8.70;4.47;;;;;;;-11.77;73.93;100265.25;1702429;83;21687;-80
2021/12/22 01:03:17;;;;;;;11.97;4.65;;;;;;;-11.74;74.67;100270.46;1724642;83;21192;-79
2021/12/22 01:06:22;;;;;;;8.90;4.62;;;;;;;-11.74;75.07;100277.05;1724897;83;21217;-79
2021/12/22 01:09:29;;;;;;;12.37;4.80;;;;;;;-11.77;75.53;100269.20;1724922;83;21133;-79
2021/12/22 01:12:35;;;;;;;10.00;4.87;;;;;;;-11.78;75.84;100270.58;1724875;83;21334;-80
2021/12/22 01:15:40;;;;;;;8.55;5.35;;;;;;;-11.76;76.19;100274.92;1725044;83;22402;-81
2021/12/22 01:18:46;;;;;;;13.93;7.25;;;;;;;-11.71;76.38;100282.27;1724904;83;21317;-81
2021/12/22 01:22:01;;;;;;;12.40;6.37;;;;;;;-11.65;76.52;100274.19;1724763;81;21675;-81
2021/12/22 01:25:01;;;;;;;15.75;6.45;;;;;;;-11.56;76.59;100279.70;1724746;83;21647;-79
2021/12/22 01:28:07;;;;;;;10.08;5.37;;;;;;;-11.51;76.57;100280.91;1711072;82;21210;-81
2021/12/22 01:31:16;;;;;;;10.45;5.47;;;;;;;-11.51;76.40;100272.98;1705112;83;21179;-80
2021/12/22 01:34:21;;;;;;;17.50;6.80;;;;;;;-11.49;76.35;100280.40;1672242;85;21210;-79
2021/12/22 01:37:27;;;;;;;14.10;5.65;;;;;;;-11.44;76.37;100279.83;1672097;84;21340;-79
2021/12/22 01:40:32;;;;;;;16.10;5.95;;;;;;;-11.40;76.15;100278.84;1672693;85;21289;-78
2021/12/22 01:43:36;;;;;;;13.75;6.05;;;;;;;-11.42;76.03;100280.21;1686984;84;21298;-78
2021/12/22 01:50:04;;;;;;;11.08;6.17;;;;;;;-11.37;75.71;100284.05;1724983;83;21274;-80
2021/12/22 01:53:14;;;;;;;11.78;5.33;;;;;;;-11.38;75.60;100290.25;1724904;83;21176;-79
2021/12/22 01:56:25;;;;;;;8.95;5.47;;;;;;;-11.37;75.54;100290.66;1721334;83;21275;-79
2021/12/22 01:59:30;;;;;;;12.60;7.00;;;;;;;-11.37;75.36;100293.30;1724903;82;21332;-81
2021/12/22 02:02:34;;;;;;;17.37;7.40;;;;;;;-11.41;75.24;100285.90;1696277;83;21202;-79
2021/12/22 02:05:41;;;;;;;13.40;5.28;;;;;;;-11.46;75.18;100290.44;1696500;84;21194;-79
2021/12/22 02:08:48;;;;;;;16.40;6.37;;;;;;;-11.50;75.24;100286.59;1696247;84;21195;-79
2021/12/22 02:11:54;;;;;;;10.53;5.92;;;;;;;-11.54;75.27;100284.47;1696044;84;21706;-79
2021/12/22 02:14:53;;;;;;;11.97;5.00;;;;;;;-11.56;75.33;100287.62;1699077;82;21210;-80
2021/12/22 02:18:03;;;;;;;12.90;6.15;;;;;;;-11.63;75.40;100288.20;1724967;83;21297;-80
2021/12/22 02:21:08;;;;;;;11.70;6.17;;;;;;;-11.70;75.63;100285.31;1724815;83;21199;-79
2021/12/22 02:24:13;;;;;;;10.58;4.92;;;;;;;-11.78;75.87;100294.31;1723558;81;21175;-79
2021/12/22 02:27:26;;;;;;;13.10;5.95;;;;;;;-11.85;76.17;100292.33;1723575;83;21258;-79
2021/12/22 02:30:28;;;;;;;17.20;6.17;;;;;;;-11.91;76.38;100303.00;1703949;82;22176;-80
2021/12/22 02:36:40;;;;;;;8.15;5.20;;;;;;;-11.95;76.62;100307.92;1699916;84;21668;-80
2021/12/22 02:39:45;;;;;;;12.78;5.97;;;;;;;-11.96;76.67;100306.20;1699734;84;21179;-79
2021/12/22 02:42:53;;;;;;;13.25;5.20;;;;;;;-11.94;76.77;100319.78;1699594;84;21309;-80
2021/12/22 02:45:59;;;;;;;13.85;5.70;;;;;;;-11.96;76.66;100318.93;1699553;83;21388;-80
2021/12/22 02:48:57;;;;;;;13.35;5.28;;;;;;;-12.00;76.64;100324.31;1700695;84;21314;-81
2021/12/22 02:52:03;;;;;;;10.30;4.90;;;;;;;-12.02;76.71;100330.09;1699436;83;21270;-79
2021/12/22 02:55:08;;;;;;;9.95;5.30;;;;;;;-12.03;76.70;100335.81;1701138;84;21290;-81
2021/12/22 02:58:18;;;;;;;18.55;5.70;;;;;;;-12.02;76.67;100339.31;1700888;84;21911;-80
2021/12/22 03:04:33;;;;;;;17.57;5.50;;;;;;;-12.10;76.67;100357.94;1700457;84;21189;-79
2021/12/22 03:07:35;;;;;;;11.90;5.50;;;;;;;-12.17;76.85;100349.30;1700524;84;21362;-80
2021/12/22 03:10:40;;;;;;;8.80;5.33;;;;;;;-12.20;76.92;100349.81;1700533;84;21276;-81
2021/12/22 03:13:47;;;;;;;8.70;5.50;;;;;;;-12.20;76.96;100362.54;1700539;84;21774;-80
2021/12/22 03:16:52;;;;;;;9.53;5.45;;;;;;;-12.19;77.00;100360.77;1700516;83;21225;-78
2021/12/22 03:19:59;;;;;;;9.78;5.58;;;;;;;-12.20;77.04;100357.72;1700520;84;21284;-79
2021/12/22 03:23:05;;;;;;;13.32;5.65;;;;;;;-12.24;77.19;100358.69;1680867;84;21845;-79
2021/12/22 03:26:13;;;;;;;12.25;5.92;;;;;;;-12.28;77.30;100361.83;1700533;84;21324;-79
2021/12/22 03:29:23;;;;;;;12.95;5.67;;;;;;;-12.29;77.36;100366.69;1699176;84;21292;-80
2021/12/22 03:32:28;;;;;;;10.53;5.37;;;;;;;-12.32;77.34;100373.36;1702654;83;21307;-80
2021/12/22 03:35:35;;;;;;;12.93;5.60;;;;;;;-12.32;77.35;100381.73;1706121;84;21225;-79
2021/12/22 03:38:40;;;;;;;11.75;5.67;;;;;;;-12.32;77.26;100382.59;1706092;84;21359;-80
2021/12/22 03:41:45;;;;;;;18.82;7.65;;;;;;;-12.38;77.10;100384.88;1705771;84;21407;-78
2021/12/22 03:44:50;;;;;;;14.65;6.45;;;;;;;-12.45;77.09;100391.19;1705849;84;21507;-80
2021/12/22 03:47:57;;;;;;;11.38;6.58;;;;;;;-12.54;77.16;100400.59;1705617;83;21322;-80
2021/12/22 03:51:02;;;;;;;15.40;7.28;;;;;;;-12.58;77.43;100399.36;1705855;84;21170;-79
2021/12/22 03:54:07;;;;;;;14.38;6.15;;;;;;;-12.62;77.52;100406.00;1705759;84;21323;-79
2021/12/22 03:57:12;;;;;;;11.05;5.92;;;;;;;-12.69;77.53;100406.16;1705861;84;21224;-79
2021/12/22 04:00:18;;;;;;;12.03;6.28;;;;;;;-12.74;77.72;100414.15;1705492;84;21234;-80
2021/12/22 04:03:28;;;;;;;12.13;5.72;;;;;;;-12.77;78.00;100414.64;1704077;84;21235;-80
2021/12/22 04:06:32;;;;;;;11.63;6.12;;;;;;;-12.78;78.09;100420.81;1702935;84;21286;-79
2021/12/22 04:09:37;;;;;;;13.78;6.37;;;;;;;-12.78;78.09;100421.69;1677982;84;21295;-79
2021/12/22 04:12:42;;;;;;;10.38;6.55;;;;;;;-12.79;78.05;100425.22;1702028;83;21292;-79
2021/12/22 04:15:48;;;;;;;15.72;5.75;;;;;;;-12.78;78.09;100432.22;1683928;84;21283;-78
2021/12/22 04:18:53;;;;;;;11.12;5.95;;;;;;;-12.77;77.99;100438.35;1676936;85;21337;-80
2021/12/22 04:21:58;;;;;;;12.30;6.47;;;;;;;-12.79;78.04;100441.03;1725950;83;21299;-79
2021/12/22 04:25:03;;;;;;;13.62;7.08;;;;;;;-12.79;78.04;100449.38;1725126;83;21274;-80
2021/12/22 04:28:10;;;;;;;18.20;6.60;;;;;;;-12.77;78.03;100445.80;1717278;83;21271;-80
2021/12/22 04:31:15;;;;;;;12.58;5.83;;;;;;;-12.76;77.98;100451.48;1697343;84;21273;-80
2021/12/22 04:34:19;;;;;;;8.35;5.42;;;;;;;-12.75;77.82;100450.62;1697195;84;21345;-80
2021/12/22 04:37:24;;;;;;;11.85;5.60;;;;;;;-12.72;77.62;100450.54;1702252;81;21283;-80
2021/12/22 04:40:30;;;;;;;9.90;5.78;;;;;;;-12.72;77.40;100454.49;1720766;83;21266;-79
2021/12/22 04:43:35;;;;;;;9.75;5.37;;;;;;;-12.71;77.21;100463.27;1725228;83;21178;-80
2021/12/22 04:46:40;;;;;;;11.93;5.80;;;;;;;-12.72;77.12;100462.40;1725862;83;21793;-79
2021/12/22 04:49:47;;;;;;;8.48;4.78;;;;;;;-12.68;76.89;100469.36;1724842;83;21325;-80
2021/12/22 04:52:59;;;;;;;9.55;5.22;;;;;;;-12.66;76.90;100474.13;1725691;83;21230;-80
2021/12/22 04:56:03;;;;;;;9.63;5.15;;;;;;;-12.59;76.86;100481.95;1725196;83;21266;-80
2021/12/22 04:59:08;;;;;;;10.38;5.75;;;;;;;-12.54;76.50;100487.56;1720224;83;21179;-80
2021/12/22 05:02:14;;;;;;;7.28;5.08;;;;;;;-12.52;76.33;100502.02;1709983;83;21273;-79
2021/12/22 05:05:19;;;;;;;10.25;6.05;;;;;;;-12.44;76.12;100508.03;1696668;82;21209;-78
2021/12/22 05:08:25;;;;;;;12.90;5.60;;;;;;;-12.44;75.83;100509.34;1724718;83;21350;-79
2021/12/22 05:11:30;;;;;;;13.68;6.12;;;;;;;-12.41;75.73;100510.62;1725283;81;21276;-79
2021/12/22 05:14:35;;;;;;;9.45;5.10;;;;;;;-12.39;75.64;100514.08;1694187;83;21866;-80
2021/12/22 05:20:49;;;;;;;15.70;5.50;;;;;;;-12.35;75.49;100521.05;1662243;85;21792;-80
2021/12/22 05:24:00;;;;;;;13.25;7.25;;;;;;;-12.35;75.55;100519.73;1692696;84;21155;-79
2021/12/22 05:27:11;;;;;;;12.93;7.75;;;;;;;-12.35;75.59;100526.77;1725703;83;21133;-80
2021/12/22 05:30:14;;;;;;;17.82;9.38;;;;;;;-12.32;75.66;100534.18;1712152;83;21255;-79
2021/12/22 05:33:20;;;;;;;13.03;6.60;;;;;;;-12.32;75.58;100540.77;1722427;82;21287;-79
2021/12/22 05:36:25;;;;;;;14.83;7.83;;;;;;;-12.30;75.54;100547.33;1702647;83;21113;-79
2021/12/22 05:39:30;;;;;;;12.58;6.95;;;;;;;-12.31;75.46;100551.73;1716482;83;21160;-79
2021/12/22 05:42:35;;;;;;;12.90;6.30;;;;;;;-12.35;75.47;100557.09;1706686;82;21846;-79
2021/12/22 05:45:39;;;;;;;12.55;6.15;;;;;;;-12.42;75.53;100556.30;1708523;82;21511;-79
2021/12/22 05:48:48;;;;;;;13.70;6.97;;;;;;;-12.47;75.64;100556.38;1713122;82;21290;-81
2021/12/22 05:51:54;;;;;;;13.38;7.25;;;;;;;-12.53;75.84;100563.53;1702474;82;21341;-81
2021/12/22 05:55:00;;;;;;;15.28;5.97;;;;;;;-12.54;76.15;100567.07;1712091;83;21134;-80
2021/12/22 05:58:05;;;;;;;14.55;6.75;;;;;;;-12.50;76.61;100566.13;1710435;82;21294;-80
2021/12/22 06:01:11;;;;;;;19.07;7.92;;;;;;;-12.43;76.89;100562.48;1714190;83;21618;-78
2021/12/22 06:04:16;;;;;;;13.68;7.28;;;;;;;-12.40;77.01;100562.44;1710499;82;21289;-80
2021/12/22 06:07:24;;;;;;;15.93;6.35;;;;;;;-12.34;76.90;100562.32;1711408;82;21303;-80
2021/12/22 06:10:34;;;;;;;15.63;6.70;;;;;;;-12.29;76.72;100562.23;1711980;82;21341;-81
2021/12/22 06:13:39;;;;;;;12.55;6.60;;;;;;;-12.24;76.84;100559.94;1707493;83;21504;-79
2021/12/22 06:16:44;;;;;;;11.50;7.05;;;;;;;-12.11;77.07;100560.14;1660270;86;21281;-79
2021/12/22 06:19:50;;;;;;;15.38;7.15;;;;;;;-11.99;77.03;100563.02;1695842;82;21727;-81
2021/12/22 06:22:56;;;;;;;12.30;6.10;;;;;;;-11.84;76.97;100563.62;1697965;82;21857;-79
2021/12/22 06:26:03;;;;;;;10.40;6.53;;;;;;;-11.75;76.83;100570.88;1695396;82;21349;-79
2021/12/22 06:29:10;;;;;;;17.02;6.45;;;;;;;-11.67;76.73;100572.02;1709522;82;21278;-79
2021/12/22 06:32:15;;;;;;;10.15;5.85;;;;;;;-11.63;76.59;100571.06;1709836;82;21179;-80
2021/12/22 06:35:20;;;;;;;17.92;8.35;;;;;;;-11.56;76.70;100583.25;1710656;81;21298;-82
2021/12/22 06:38:26;;;;;;;14.07;6.95;;;;;;;-11.45;76.73;100583.02;1681675;83;21214;-79
2021/12/22 06:41:31;;;;;;;14.25;7.08;;;;;;;-11.35;76.62;100580.60;1677477;83;21220;-81
2021/12/22 06:44:37;;;;;;;13.45;7.53;;;;;;;-11.28;76.51;100584.87;1676527;83;21517;-81
2021/12/22 06:47:43;;;;;;;15.00;7.62;;;;;;;-11.19;76.49;100585.99;1661062;84;22145;-81
2021/12/22 06:50:48;;;;;;;13.35;6.67;;;;;;;-11.11;76.31;100583.16;1682632;83;21213;-81
2021/12/22 06:53:55;;;;;;;14.43;7.17;;;;;;;-11.08;76.18;100583.11;1681635;83;21191;-81
2021/12/22 06:57:00;;;;;;;14.60;8.05;;;;;;;-11.07;76.18;100589.66;1682630;83;21582;-81
2021/12/22 07:00:07;;;;;;;12.85;7.05;;;;;;;-11.00;76.34;100585.13;1684507;83;21198;-81
2021/12/22 07:03:16;;;;;;;14.90;7.25;;;;;;;-10.85;76.32;100583.45;1683586;83;21847;-82
2021/12/22 07:06:22;;;;;;;14.45;6.95;;;;;;;-10.76;75.92;100585.48;1683114;83;22039;-82
2021/12/22 07:09:27;;;;;;;16.12;8.25;;;;;;;-10.73;75.60;100592.86;1683671;83;21768;-81
2021/12/22 07:12:34;;;;;;;17.10;6.85;;;;;;;-10.72;75.38;100599.91;1683192;83;21219;-83
2021/12/22 07:15:40;;;;;;;16.60;7.70;;;;;;;-10.69;75.39;100603.78;1682261;83;21320;-83
2021/12/22 07:18:47;;;;;;;15.43;7.22;;;;;;;-10.66;75.37;100603.72;1684277;83;21533;-83
2021/12/22 07:21:55;;;;;;;15.88;7.37;;;;;;;-10.64;75.43;100609.83;1685712;83;21490;-83
2021/12/22 07:25:00;;;;;;;16.55;8.45;;;;;;;-10.58;75.50;100602.23;1705769;82;21239;-84
2021/12/22 07:28:04;;;;;;;13.32;6.55;;;;;;;-10.49;75.29;100601.11;1699209;82;21442;-83
2021/12/22 07:31:09;;;;;;;18.73;7.87;;;;;;;-10.42;74.98;100610.66;1692235;82;22092;-83
2021/12/22 07:34:25;;;;;;;13.10;7.03;;;;;;;-10.38;74.81;100605.71;1697480;82;21246;-83
2021/12/22 07:37:55;;;;;;;14.28;7.30;;;;;;;-10.38;74.58;100598.64;1680440;82;21186;-83
2021/12/22 07:41:01;;;;;;;11.97;7.20;;;;;;;-10.35;74.58;100605.19;1679215;83;21236;-82
2021/12/22 07:44:07;;;;;;;12.25;6.60;;;;;;;-10.26;74.60;100606.70;1708800;81;21281;-82
2021/12/22 07:47:15;;;;;;;12.82;6.80;;;;;;;-10.18;74.55;100606.49;1712754;81;21701;-82
2021/12/22 07:50:20;;;;;;;16.73;7.42;;;;;;;-10.16;74.47;100607.31;1683292;84;21554;-81
2021/12/22 07:53:19;;;;;;;15.85;6.35;;;;;;;-10.11;74.59;100603.67;1710283;82;21187;-81
2021/12/22 07:56:15;;;;;;;16.75;7.97;;;;;;;-10.03;74.76;100611.39;1708651;83;21792;-78
2021/12/22 07:59:19;;;;;;;16.12;7.37;;;;;;;-9.93;74.70;100612.88;1712204;83;21252;-81
2021/12/22 08:02:25;;;;;;;10.85;6.45;;;;;;;-9.86;74.37;100612.28;1682488;83;21874;-80
2021/12/22 08:05:32;;;;;;;21.48;7.70;;;;;;;-9.84;74.12;100621.04;1702753;82;21233;-82
2021/12/22 08:08:38;;;;;;;17.75;6.35;;;;;;;-9.84;74.02;100614.42;1700915;81;21195;-81
2021/12/22 08:11:44;;;;;;;14.20;6.60;;;;;;;-9.80;74.01;100616.08;1720346;81;21469;-80
2021/12/22 08:14:49;;;;;;;14.50;6.55;;;;;;;-9.80;73.93;100615.63;1701606;82;21168;-77
2021/12/22 08:17:56;;;;;;;13.98;6.95;;;;;;;-9.81;73.96;100623.16;1670284;84;21227;-79
2021/12/22 08:21:01;;;;;;;13.55;7.33;;;;;;;-9.74;74.03;100616.37;1684181;83;21204;-76
2021/12/22 08:24:08;;;;;;;12.25;7.15;;;;;;;-9.70;73.83;100620.21;1687178;83;21194;-76
2021/12/22 08:27:14;;;;;;;16.45;7.80;;;;;;;-9.65;73.72;100614.80;1706045;82;21420;-80
2021/12/22 08:30:27;;;;;;;17.40;8.90;;;;;;;-9.59;73.74;100615.52;1694374;82;21198;-83
2021/12/22 08:33:38;;;;;;;13.35;7.17;;;;;;;-9.49;73.71;100616.59;1690304;82;21206;-83
2021/12/22 08:40:04;;;;;;;12.10;7.00;;;;;;;-9.38;73.08;100611.38;1706927;82;21239;-83
2021/12/22 08:43:11;;;;;;;13.03;6.42;;;;;;;-9.34;72.93;100612.17;1702276;82;21207;-83
2021/12/22 08:46:17;;;;;;;13.50;5.97;;;;;;;-9.33;72.82;100611.25;1682465;83;22277;-82
2021/12/22 08:49:23;;;;;;;17.57;7.22;;;;;;;-9.30;72.66;100621.31;1707339;82;21705;-80
2021/12/22 08:52:27;;;;;;;15.05;6.05;;;;;;;-9.30;72.53;100622.64;1712248;82;21662;-80
2021/12/22 08:55:33;;;;;;;12.68;5.65;;;;;;;-9.20;72.28;100615.75;1711241;82;21282;-81
2021/12/22 08:58:45;;;;;;;12.60;7.00;;;;;;;-9.18;72.07;100613.45;1709508;82;21333;-85
2021/12/22 09:01:55;;;;;;;12.90;6.53;;;;;;;-9.19;71.59;100601.12;1711303;82;21605;-83
2021/12/22 09:05:04;;;;;;;13.35;6.00;;;;;;;-9.17;71.65;100604.61;1709993;82;21232;-83
2021/12/22 09:08:11;;;;;;;10.30;5.72;;;;;;;-9.13;71.34;100613.31;1711124;82;21270;-81
2021/12/22 09:11:23;;;;;;;16.85;6.05;;;;;;;-9.11;71.49;100605.75;1710379;82;21243;-84
2021/12/22 09:14:28;;;;;;;15.88;6.08;;;;;;;-9.07;71.69;100611.38;1703840;83;21746;-82
2021/12/22 09:17:33;;;;;;;14.90;5.83;;;;;;;-9.04;71.58;100601.98;1711851;82;21286;-79
2021/12/22 09:20:37;;;;;;;13.05;6.33;;;;;;;-8.95;71.78;100599.98;1707633;82;21329;-79
2021/12/22 09:23:47;;;;;;;9.95;5.65;;;;;;;-8.92;71.62;100598.11;1707622;82;21324;-78
2021/12/22 09:26:54;;;;;;;14.83;6.40;;;;;;;-8.92;71.68;100606.52;1705706;82;21317;-82
2021/12/22 09:30:01;;;;;;;18.27;6.22;;;;;;;-8.91;71.92;100598.52;1705485;82;21532;-82
2021/12/22 09:33:08;;;;;;;9.45;5.58;;;;;;;-8.89;71.64;100599.36;1711151;82;21301;-80
2021/12/22 09:36:15;;;;;;;11.83;6.45;;;;;;;-8.86;71.97;100601.03;1660365;84;21779;-79
2021/12/22 09:39:24;;;;;;;12.98;6.12;;;;;;;-8.82;72.04;100598.70;1685113;83;21218;-79
2021/12/22 09:42:30;;;;;;;11.68;6.28;;;;;;;-8.78;72.11;100606.97;1691465;83;21207;-78
2021/12/22 09:45:41;;;;;;;16.20;6.33;;;;;;;-8.73;71.91;100606.37;1702663;82;21546;-79
2021/12/22 09:49:18;;;;;;;14.45;6.30;;;;;;;-8.76;71.12;100601.15;1671965;82;21206;-79
2021/12/22 09:52:23;;;;;;;9.08;5.58;;;;;;;-8.76;71.18;100603.80;1680792;82;21880;-79
2021/12/22 09:55:25;;;;;;;17.45;6.58;;;;;;;-8.73;70.79;100603.72;1705084;82;21216;-80
2021/12/22 09:58:31;;;;;;;10.25;6.28;;;;;;;-8.77;70.40;100606.05;1713287;82;21328;-79
2021/12/22 10:01:37;;;;;;;10.38;6.10;;;;;;;-8.77;70.93;100608.70;1711391;82;21264;-80
2021/12/22 10:04:43;;;;;;;16.82;5.83;;;;;;;-8.76;70.89;100602.02;1710246;82;22133;-82
2021/12/22 10:07:50;;;;;;;21.15;7.08;;;;;;;-8.74;70.67;100607.75;1680600;83;21184;-82
2021/12/22 10:10:59;;;;;;;10.65;5.87;;;;;;;-8.76;70.34;100609.11;1691567;82;21184;-83
2021/12/22 10:14:25;;;;;;;13.68;6.70;;;;;;;-8.72;70.59;100601.93;1679910;83;21270;-81
2021/12/22 10:17:52;;;;;;;13.53;6.30;;;;;;;-8.66;70.28;100607.89;1697285;82;21295;-81
2021/12/22 10:21:00;;;;;;;15.90;6.50;;;;;;;-8.62;70.48;100608.22;1705823;82;21683;-80
2021/12/22 10:24:06;;;;;;;11.37;5.93;;;;;;;-8.55;70.25;100595.64;1678964;83;22149;-80
2021/12/22 10:27:18;;;;;;;14.35;5.90;;;;;;;-8.44;69.87;100598.81;1679231;83;22026;-81
2021/12/22 10:30:37;;;;;;;13.05;7.15;;;;;;;-8.44;69.54;100588.66;1703972;82;21757;-79
2021/12/22 10:34:00;;;;;;;12.98;6.00;;;;;;;-8.47;69.21;100587.42;1707247;82;22395;-79
2021/12/22 10:37:03;;;;;;;9.03;5.40;;;;;;;-8.38;69.04;100578.70;1821913;76;22904;-82
2021/12/22 10:40:30;;;;;;;11.03;5.90;;;;;;;-8.43;68.82;100585.08;1798414;78;21310;-85
2021/12/22 10:43:37;;;;;;;8.90;5.87;;;;;;;-8.46;69.10;100585.20;1796555;77;21777;-83
2021/12/22 10:46:48;;;;;;;8.90;5.67;;;;;;;-8.52;69.04;100595.06;1764614;80;22184;-79
2021/12/22 10:50:12;;;;;;;;;;;;;;;-8.51;69.49;100601.27;1769298;79;21844;-81
2021/12/22 10:53:25;;;;;;;13.18;5.70;;;;;;;-8.48;69.13;100593.65;1767782;80;20256;-81
2021/12/22 10:56:38;;;;;;;13.30;6.20;;;;;;;-8.47;68.97;100600.69;1758869;79;21785;-82
2021/12/22 10:59:54;;;;;;;12.58;6.30;;;;;;;-8.49;69.00;100595.44;1737695;81;21633;-81
2021/12/22 11:03:23;;;;;;;11.68;6.25;;;;;;;-8.50;68.87;100597.69;1737002;81;21326;-80
2021/12/22 11:06:42;;;;;;;8.90;5.58;;;;;;;-8.54;68.60;100596.91;1731419;80;21833;-82
2021/12/22 11:09:50;;;;;;;13.83;6.90;;;;;;;-8.64;69.04;100598.12;1747177;80;21854;-83
2021/12/22 11:13:10;;;;;;;12.90;6.62;;;;;;;-8.63;69.41;100599.86;1754607;80;21232;-84
2021/12/22 11:16:21;;;;;;;11.85;6.78;;;;;;;-8.65;69.18;100599.05;1728428;80;21204;-83
2021/12/22 11:19:27;;;;;;;15.35;6.42;;;;;;;-8.60;69.57;100596.25;1733139;81;21398;-84
2021/12/22 11:22:59;;;;;;;14.28;6.37;;;;;;;-8.58;69.57;100592.62;1737451;80;21331;-81
2021/12/22 11:26:01;;;;;;;12.25;6.37;;;;;;;-8.56;69.74;100605.82;1736273;81;21295;-81
2021/12/22 11:29:10;;;;;;;12.70;6.87;;;;;;;-8.57;69.89;100608.94;1737217;80;21786;-82
2021/12/22 11:32:17;;;;;;;15.20;7.20;;;;;;;-8.52;70.03;100610.98;1730172;80;21471;-83
2021/12/22 11:35:27;;;;;;;17.60;6.05;;;;;;;-8.50;69.59;100621.10;1740293;81;22648;-83
2021/12/22 11:38:40;;;;;;;14.95;6.58;;;;;;;-8.52;69.72;100624.70;1707576;80;21479;-84
2021/12/22 11:41:58;;;;;;;18.32;7.08;;;;;;;-8.53;69.57;100625.62;1743862;80;21313;-82
2021/12/22 11:45:05;;;;;;;14.93;6.08;;;;;;;-8.50;70.00;100624.22;1738652;81;21296;-80
2021/12/22 11:48:11;;;;;;;13.03;6.78;;;;;;;-8.43;69.93;100625.74;1742952;80;21335;-82
2021/12/22 11:51:36;;;;;;;10.98;5.80;;;;;;;-8.40;70.00;100640.70;1725186;80;21496;-84
2021/12/22 11:54:46;;;;;;;13.60;6.92;;;;;;;-8.33;69.91;100639.55;1740323;80;21927;-80
2021/12/22 11:57:56;;;;;;;10.05;6.33;;;;;;;-8.31;70.00;100635.94;1716409;81;21216;-81
2021/12/22 12:01:11;;;;;;;15.23;7.08;;;;;;;-8.33;70.02;100645.72;1744705;80;21827;-83
2021/12/22 12:04:21;;;;;;;18.55;7.37;;;;;;;-8.33;69.92;100647.50;1744421;81;21923;-85
2021/12/22 12:07:54;;;;;;;12.85;6.80;;;;;;;-8.34;70.09;100655.06;1740846;80;21330;-83
2021/12/22 12:11:01;;;;;;;14.60;7.40;;;;;;;-8.31;70.24;100661.61;1736742;81;21671;-82
2021/12/22 12:14:13;;;;;;;12.70;6.20;;;;;;;-8.31;70.15;100660.28;1721274;81;21843;-85
2021/12/22 12:24:52;;;;;;;13.98;7.65;;;;;;;-8.26;70.13;100668.97;1742031;80;21291;-80
2021/12/22 12:27:59;;;;;;;12.20;6.95;;;;;;;-8.29;69.88;100669.05;1743568;81;21669;-82
2021/12/22 12:31:09;;;;;;;8.95;5.92;;;;;;;-8.30;70.01;100671.30;1737851;80;22315;-80
2021/12/22 12:34:38;;;;;;;12.43;7.08;;;;;;;-8.34;70.25;100673.64;1737011;80;21192;-87
2021/12/22 12:38:20;;;;;;;16.40;6.50;;;;;;;-8.34;70.23;100670.98;1723641;80;21203;-84
2021/12/22 12:41:31;;;;;;;12.90;6.90;;;;;;;-8.30;70.43;100662.02;1714024;82;21310;-79
2021/12/22 12:44:37;;;;;;;13.70;6.45;;;;;;;-8.28;70.43;100668.13;1728845;82;21803;-81
2021/12/22 12:47:41;;;;;;;12.90;6.47;;;;;;;-8.27;70.33;100669.43;1708125;82;21225;-81
2021/12/22 12:50:47;;;;;;;14.78;6.37;;;;;;;-8.25;70.46;100679.98;1708749;83;21236;-83
2021/12/22 12:53:57;;;;;;;11.63;6.05;;;;;;;-8.16;70.54;100671.73;1694670;83;21321;-85
2021/12/22 12:57:10;;;;;;;10.60;5.22;;;;;;;-8.05;70.54;100681.53;1717874;81;21315;-84
2021/12/22 13:00:22;;;;;;;11.12;7.05;;;;;;;-7.97;70.31;100677.30;1716955;82;21331;-84
2021/12/22 13:03:27;;;;;;;17.27;8.35;;;;;;;-7.93;69.94;100674.97;1695597;83;21301;-84
2021/12/22 13:06:41;;;;;;;16.73;9.65;;;;;;;-7.94;69.68;100671.05;1717784;83;21220;-83
2021/12/22 13:10:10;;;;;;;16.62;7.87;;;;;;;-7.95;69.62;100674.59;1720561;83;21422;-83
2021/12/22 13:13:15;;;;;;;13.22;6.30;;;;;;;-7.98;69.36;100676.45;1731248;82;21458;-82
2021/12/22 13:16:24;;;;;;;14.85;7.60;;;;;;;-8.03;69.22;100678.38;1706564;83;21318;-85
2021/12/22 13:19:55;;;;;;;15.35;8.15;;;;;;;-8.14;69.14;100680.50;1711410;83;21541;-84
2021/12/22 13:23:00;;;;;;;10.85;6.15;;;;;;;-8.17;69.26;100687.25;1702838;82;21252;-83
2021/12/22 13:26:06;;;;;;;16.00;7.22;;;;;;;-8.23;69.21;100688.78;1714801;83;21291;-82
2021/12/22 13:29:21;;;;;;;20.37;6.33;;;;;;;-8.31;69.44;100686.36;1716508;81;21181;-85
2021/12/22 13:32:26;;;;;;;11.90;7.17;;;;;;;-8.29;69.72;100683.65;1717079;81;21334;-84
2021/12/22 13:35:57;;;;;;;19.15;6.92;;;;;;;-8.18;70.09;100688.64;1714786;82;21201;-81
2021/12/22 13:39:05;;;;;;;10.15;5.87;;;;;;;-8.05;69.97;100684.19;1710036;82;21912;-81
2021/12/22 13:42:11;;;;;;;11.55;5.78;;;;;;;-8.00;69.72;100691.57;1716252;82;21730;-81
2021/12/22 13:45:16;;;;;;;15.15;6.33;;;;;;;-8.00;69.62;100694.66;1721344;82;21380;-79
2021/12/22 13:48:32;;;;;;;11.20;5.65;;;;;;;-8.01;69.47;100699.56;1713576;82;22254;-84
2021/12/22 13:51:44;;;;;;;10.32;5.03;;;;;;;-8.03;69.12;100700.09;1775161;79;21346;-84
2021/12/22 13:54:50;;;;;;;11.00;6.05;;;;;;;-8.10;68.96;100705.16;1780058;78;21296;-84
2021/12/22 13:57:56;;;;;;;9.73;5.42;;;;;;;-8.19;68.91;100706.78;1765988;79;22234;-81
2021/12/22 14:01:16;;;;;;;14.13;5.87;;;;;;;-8.31;69.01;100708.05;1782056;78;21319;-83
2021/12/22 14:04:24;;;;;;;9.73;5.30;;;;;;;-8.37;69.22;100705.63;1773997;79;21566;-80
2021/12/22 14:07:30;;;;;;;13.50;5.12;;;;;;;-8.39;69.24;100701.67;1776527;79;21280;-82
2021/12/22 14:10:36;;;;;;;10.38;5.20;;;;;;;-8.44;69.29;100705.39;1725458;81;21359;-83
2021/12/22 14:13:42;;;;;;;9.18;5.10;;;;;;;-8.47;69.35;100701.03;1779871;78;21285;-81
2021/12/22 14:16:48;;;;;;;9.68;4.42;;;;;;;-8.46;69.35;100705.91;1783146;78;21314;-83
2021/12/22 14:20:04;;;;;;;9.63;5.22;;;;;;;-8.46;69.30;100711.22;1750079;81;21296;-84
2021/12/22 14:23:09;;;;;;;8.53;4.85;;;;;;;-8.48;69.38;100717.88;1773187;78;21657;-83
2021/12/22 14:26:15;;;;;;;9.60;5.70;;;;;;;-8.54;69.32;100713.62;1726814;81;21288;-80
2021/12/22 14:29:20;;;;;;;7.10;4.67;;;;;;;-8.53;69.26;100721.13;1790459;78;21180;-81
2021/12/22 14:32:43;;;;;;;10.08;5.20;;;;;;;-8.54;69.35;100721.59;1787522;78;21702;-79
2021/12/22 14:36:09;;;;;;;10.13;5.47;;;;;;;-8.57;69.16;100732.28;1788272;78;21673;-82
2021/12/22 14:39:11;;;;;;;11.00;4.83;;;;;;;-8.55;69.08;100735.78;1784774;79;21932;-79
2021/12/22 14:42:28;;;;;;;16.20;5.53;;;;;;;-8.60;68.80;100740.81;1794176;78;21951;-80
2021/12/22 14:45:39;;;;;;;12.82;6.10;;;;;;;-8.65;68.70;100742.73;1789074;79;21694;-81